sensor_id;sensor_type;location;lat;lon;timestamp;P1;durP1;ratioP1;P2;durP2;ratioP2
11039;SDS011;5573;49.592;8.662;2023-07-08T00:00:13;485.35;;;456.75;;
11039;SDS011;5573;49.592;8.662;2023-07-08T00:02:46;490.98;;;461.73;;
11039;SDS011;5573;49.592;8.662;2023-07-08T00:05:15;488.92;;;460.27;;
11039;SDS011;5573;49.592;8.662;2023-07-08T00:07:44;504.25;;;473.75;;
11039;SDS011;5573;49.592;8.662;2023-07-08T00:10:15;501.48;;;471.83;;
11039;SDS011;5573;49.592;8.662;2023-07-08T00:12:45;497.15;;;467.17;;
11039;SDS011;5573;49.592;8.662;2023-07-08T00:15:15;499.75;;;469.88;;
11039;SDS011;5573;49.592;8.662;2023-07-08T00:17:44;497.67;;;467.88;;
11039;SDS011;5573;49.592;8.662;2023-07-08T00:20:13;486.65;;;457.80;;
11039;SDS011;5573;49.592;8.662;2023-07-08T00:22:45;482.92;;;454.83;;
11039;SDS011;5573;49.592;8.662;2023-07-08T00:25:18;480.45;;;451.77;;
11039;SDS011;5573;49.592;8.662;2023-07-08T00:27:46;489.60;;;460.77;;
11039;SDS011;5573;49.592;8.662;2023-07-08T00:30:19;492.75;;;463.15;;
11039;SDS011;5573;49.592;8.662;2023-07-08T00:32:48;482.45;;;453.52;;
11039;SDS011;5573;49.592;8.662;2023-07-08T00:35:21;483.95;;;455.20;;
11039;SDS011;5573;49.592;8.662;2023-07-08T00:37:51;483.77;;;455.30;;
11039;SDS011;5573;49.592;8.662;2023-07-08T00:40:21;500.73;;;471.42;;
11039;SDS011;5573;49.592;8.662;2023-07-08T00:42:51;496.23;;;466.40;;
11039;SDS011;5573;49.592;8.662;2023-07-08T00:45:32;477.10;;;448.80;;
11039;SDS011;5573;49.592;8.662;2023-07-08T00:48:28;488.02;;;459.98;;
11039;SDS011;5573;49.592;8.662;2023-07-08T00:51:01;497.38;;;467.42;;
11039;SDS011;5573;49.592;8.662;2023-07-08T00:53:30;474.27;;;445.55;;
11039;SDS011;5573;49.592;8.662;2023-07-08T00:56:01;492.40;;;462.98;;
11039;SDS011;5573;49.592;8.662;2023-07-08T00:58:33;479.55;;;451.50;;
11039;SDS011;5573;49.592;8.662;2023-07-08T01:01:03;481.10;;;452.88;;
11039;SDS011;5573;49.592;8.662;2023-07-08T01:03:34;486.05;;;457.63;;
11039;SDS011;5573;49.592;8.662;2023-07-08T01:06:16;493.05;;;463.77;;
11039;SDS011;5573;49.592;8.662;2023-07-08T01:08:45;486.65;;;457.80;;
11039;SDS011;5573;49.592;8.662;2023-07-08T01:11:15;504.23;;;474.05;;
11039;SDS011;5573;49.592;8.662;2023-07-08T01:13:43;476.63;;;448.38;;
11039;SDS011;5573;49.592;8.662;2023-07-08T01:16:11;499.45;;;470.17;;
11039;SDS011;5573;49.592;8.662;2023-07-08T01:18:42;498.67;;;468.40;;
11039;SDS011;5573;49.592;8.662;2023-07-08T01:21:30;476.00;;;447.60;;
11039;SDS011;5573;49.592;8.662;2023-07-08T01:24:02;514.58;;;483.60;;
11039;SDS011;5573;49.592;8.662;2023-07-08T01:26:33;495.30;;;465.52;;
11039;SDS011;5573;49.592;8.662;2023-07-08T01:29:03;488.58;;;459.30;;
11039;SDS011;5573;49.592;8.662;2023-07-08T01:31:31;494.67;;;465.17;;
11039;SDS011;5573;49.592;8.662;2023-07-08T01:33:59;494.30;;;464.00;;
11039;SDS011;5573;49.592;8.662;2023-07-08T01:36:28;450.73;;;423.98;;
11039;SDS011;5573;49.592;8.662;2023-07-08T01:38:59;491.02;;;461.73;;
11039;SDS011;5573;49.592;8.662;2023-07-08T01:41:28;470.08;;;442.45;;
11039;SDS011;5573;49.592;8.662;2023-07-08T01:43:56;494.98;;;465.27;;
11039;SDS011;5573;49.592;8.662;2023-07-08T01:46:25;479.25;;;450.80;;
11039;SDS011;5573;49.592;8.662;2023-07-08T01:48:56;476.80;;;449.08;;
11039;SDS011;5573;49.592;8.662;2023-07-08T01:51:27;471.58;;;443.33;;
11039;SDS011;5573;49.592;8.662;2023-07-08T01:53:56;464.00;;;436.15;;
11039;SDS011;5573;49.592;8.662;2023-07-08T01:56:23;441.30;;;415.08;;
11039;SDS011;5573;49.592;8.662;2023-07-08T01:58:52;470.23;;;442.02;;
11039;SDS011;5573;49.592;8.662;2023-07-08T02:01:21;464.33;;;436.17;;
11039;SDS011;5573;49.592;8.662;2023-07-08T02:03:48;459.00;;;431.40;;
11039;SDS011;5573;49.592;8.662;2023-07-08T02:06:19;445.63;;;419.13;;
11039;SDS011;5573;49.592;8.662;2023-07-08T02:08:47;435.95;;;409.73;;
11039;SDS011;5573;49.592;8.662;2023-07-08T02:11:16;442.25;;;416.05;;
11039;SDS011;5573;49.592;8.662;2023-07-08T02:13:44;406.85;;;383.10;;
11039;SDS011;5573;49.592;8.662;2023-07-08T02:16:14;393.08;;;370.10;;
11039;SDS011;5573;49.592;8.662;2023-07-08T02:18:41;411.02;;;387.00;;
11039;SDS011;5573;49.592;8.662;2023-07-08T02:21:09;391.13;;;368.27;;
11039;SDS011;5573;49.592;8.662;2023-07-08T02:23:39;414.60;;;389.85;;
11039;SDS011;5573;49.592;8.662;2023-07-08T02:26:07;411.48;;;386.92;;
11039;SDS011;5573;49.592;8.662;2023-07-08T02:28:34;379.30;;;356.88;;
11039;SDS011;5573;49.592;8.662;2023-07-08T02:31:02;412.65;;;387.85;;
11039;SDS011;5573;49.592;8.662;2023-07-08T02:33:32;399.30;;;374.98;;
11039;SDS011;5573;49.592;8.662;2023-07-08T02:36:00;407.85;;;383.75;;
11039;SDS011;5573;49.592;8.662;2023-07-08T02:38:28;395.17;;;372.40;;
11039;SDS011;5573;49.592;8.662;2023-07-08T02:40:56;404.90;;;380.73;;
11039;SDS011;5573;49.592;8.662;2023-07-08T02:43:25;406.63;;;382.27;;
11039;SDS011;5573;49.592;8.662;2023-07-08T02:45:53;404.80;;;380.70;;
11039;SDS011;5573;49.592;8.662;2023-07-08T02:48:21;392.52;;;369.33;;
11039;SDS011;5573;49.592;8.662;2023-07-08T02:50:50;399.90;;;376.50;;
11039;SDS011;5573;49.592;8.662;2023-07-08T02:53:18;400.17;;;376.83;;
11039;SDS011;5573;49.592;8.662;2023-07-08T02:55:46;390.98;;;368.02;;
11039;SDS011;5573;49.592;8.662;2023-07-08T02:58:15;382.70;;;360.40;;
11039;SDS011;5573;49.592;8.662;2023-07-08T03:00:43;385.77;;;363.35;;
11039;SDS011;5573;49.592;8.662;2023-07-08T03:03:11;410.60;;;386.73;;
11039;SDS011;5573;49.592;8.662;2023-07-08T03:05:39;405.75;;;381.95;;
11039;SDS011;5573;49.592;8.662;2023-07-08T03:08:08;426.38;;;401.15;;
11039;SDS011;5573;49.592;8.662;2023-07-08T03:10:35;410.90;;;386.25;;
11039;SDS011;5573;49.592;8.662;2023-07-08T03:13:03;389.88;;;366.80;;
11039;SDS011;5573;49.592;8.662;2023-07-08T03:15:31;402.73;;;378.98;;
11039;SDS011;5573;49.592;8.662;2023-07-08T03:17:59;400.13;;;376.70;;
11039;SDS011;5573;49.592;8.662;2023-07-08T03:20:27;401.10;;;376.98;;
11039;SDS011;5573;49.592;8.662;2023-07-08T03:22:59;415.13;;;390.02;;
11039;SDS011;5573;49.592;8.662;2023-07-08T03:25:28;300.52;;;282.95;;
11039;SDS011;5573;49.592;8.662;2023-07-08T03:27:56;309.92;;;289.52;;
11039;SDS011;5573;49.592;8.662;2023-07-08T03:30:25;359.17;;;338.65;;
11039;SDS011;5573;49.592;8.662;2023-07-08T03:32:54;340.85;;;321.38;;
11039;SDS011;5573;49.592;8.662;2023-07-08T03:35:22;343.48;;;323.80;;
11039;SDS011;5573;49.592;8.662;2023-07-08T03:37:50;383.15;;;361.17;;
11039;SDS011;5573;49.592;8.662;2023-07-08T03:40:18;399.83;;;377.20;;
11039;SDS011;5573;49.592;8.662;2023-07-08T03:42:48;721.33;;;378.98;;
11039;SDS011;5573;49.592;8.662;2023-07-08T03:45:16;381.50;;;348.98;;
11039;SDS011;5573;49.592;8.662;2023-07-08T03:47:44;105.00;;;99.13;;
11039;SDS011;5573;49.592;8.662;2023-07-08T03:50:16;121.00;;;114.32;;
11039;SDS011;5573;49.592;8.662;2023-07-08T03:52:46;116.85;;;110.40;;
11039;SDS011;5573;49.592;8.662;2023-07-08T03:55:14;147.18;;;138.90;;
11039;SDS011;5573;49.592;8.662;2023-07-08T03:57:42;128.10;;;114.65;;
11039;SDS011;5573;49.592;8.662;2023-07-08T04:00:12;134.15;;;88.93;;
11039;SDS011;5573;49.592;8.662;2023-07-08T04:02:41;97.93;;;91.75;;
11039;SDS011;5573;49.592;8.662;2023-07-08T04:05:16;97.00;;;91.88;;
11039;SDS011;5573;49.592;8.662;2023-07-08T04:07:45;56.60;;;53.53;;
11039;SDS011;5573;49.592;8.662;2023-07-08T04:10:14;58.88;;;55.67;;
11039;SDS011;5573;49.592;8.662;2023-07-08T04:12:43;59.88;;;56.67;;
11039;SDS011;5573;49.592;8.662;2023-07-08T04:15:12;65.88;;;62.25;;
11039;SDS011;5573;49.592;8.662;2023-07-08T04:17:41;66.43;;;62.88;;
11039;SDS011;5573;49.592;8.662;2023-07-08T04:20:13;67.95;;;64.25;;
11039;SDS011;5573;49.592;8.662;2023-07-08T04:22:41;62.70;;;59.35;;
11039;SDS011;5573;49.592;8.662;2023-07-08T04:25:09;63.95;;;60.55;;
11039;SDS011;5573;49.592;8.662;2023-07-08T04:27:38;64.28;;;60.72;;
11039;SDS011;5573;49.592;8.662;2023-07-08T04:30:07;63.95;;;60.50;;
11039;SDS011;5573;49.592;8.662;2023-07-08T04:32:43;69.82;;;65.90;;
11039;SDS011;5573;49.592;8.662;2023-07-08T04:35:11;69.20;;;65.50;;
11039;SDS011;5573;49.592;8.662;2023-07-08T04:37:39;70.05;;;66.28;;
11039;SDS011;5573;49.592;8.662;2023-07-08T04:40:08;76.68;;;72.30;;
11039;SDS011;5573;49.592;8.662;2023-07-08T04:42:43;69.80;;;66.05;;
11039;SDS011;5573;49.592;8.662;2023-07-08T04:45:15;63.92;;;60.58;;
11039;SDS011;5573;49.592;8.662;2023-07-08T04:47:45;205.25;;;104.38;;
11039;SDS011;5573;49.592;8.662;2023-07-08T04:50:20;86.93;;;82.40;;
11039;SDS011;5573;49.592;8.662;2023-07-08T04:52:47;108.07;;;102.40;;
11039;SDS011;5573;49.592;8.662;2023-07-08T04:55:16;106.30;;;100.65;;
11039;SDS011;5573;49.592;8.662;2023-07-08T04:57:44;114.22;;;108.18;;
11039;SDS011;5573;49.592;8.662;2023-07-08T05:00:13;107.18;;;101.50;;
11039;SDS011;5573;49.592;8.662;2023-07-08T05:02:44;151.77;;;143.45;;
11039;SDS011;5573;49.592;8.662;2023-07-08T05:05:13;130.05;;;123.28;;
11039;SDS011;5573;49.592;8.662;2023-07-08T05:07:41;137.18;;;129.95;;
11039;SDS011;5573;49.592;8.662;2023-07-08T05:10:09;133.25;;;126.07;;
11039;SDS011;5573;49.592;8.662;2023-07-08T05:12:37;129.98;;;123.03;;
11039;SDS011;5573;49.592;8.662;2023-07-08T05:15:05;124.80;;;118.22;;
11039;SDS011;5573;49.592;8.662;2023-07-08T05:17:34;125.38;;;118.57;;
11039;SDS011;5573;49.592;8.662;2023-07-08T05:20:04;301.42;;;190.65;;
11039;SDS011;5573;49.592;8.662;2023-07-08T05:22:34;168.07;;;159.18;;
11039;SDS011;5573;49.592;8.662;2023-07-08T05:25:02;178.20;;;168.98;;
11039;SDS011;5573;49.592;8.662;2023-07-08T05:27:31;167.48;;;158.57;;
11039;SDS011;5573;49.592;8.662;2023-07-08T05:30:00;527.92;;;129.45;;
11039;SDS011;5573;49.592;8.662;2023-07-08T05:32:28;170.32;;;161.23;;
11039;SDS011;5573;49.592;8.662;2023-07-08T05:34:56;155.57;;;147.18;;
11039;SDS011;5573;49.592;8.662;2023-07-08T05:37:25;147.68;;;139.68;;
11039;SDS011;5573;49.592;8.662;2023-07-08T05:39:55;129.35;;;122.47;;
11039;SDS011;5573;49.592;8.662;2023-07-08T05:42:23;130.02;;;122.95;;
11039;SDS011;5573;49.592;8.662;2023-07-08T05:44:50;124.75;;;118.05;;
11039;SDS011;5573;49.592;8.662;2023-07-08T05:47:18;123.93;;;117.38;;
11039;SDS011;5573;49.592;8.662;2023-07-08T05:49:46;169.55;;;127.75;;
11039;SDS011;5573;49.592;8.662;2023-07-08T05:52:14;127.40;;;120.78;;
11039;SDS011;5573;49.592;8.662;2023-07-08T05:54:43;133.82;;;126.97;;
11039;SDS011;5573;49.592;8.662;2023-07-08T05:57:11;182.15;;;172.90;;
11039;SDS011;5573;49.592;8.662;2023-07-08T05:59:40;161.18;;;152.85;;
11039;SDS011;5573;49.592;8.662;2023-07-08T06:02:10;166.07;;;157.27;;
11039;SDS011;5573;49.592;8.662;2023-07-08T06:04:38;176.77;;;167.30;;
11039;SDS011;5573;49.592;8.662;2023-07-08T06:07:06;175.77;;;166.50;;
11039;SDS011;5573;49.592;8.662;2023-07-08T06:09:34;187.15;;;177.45;;
11039;SDS011;5573;49.592;8.662;2023-07-08T06:12:04;178.18;;;168.75;;
11039;SDS011;5573;49.592;8.662;2023-07-08T06:14:32;165.15;;;156.43;;
11039;SDS011;5573;49.592;8.662;2023-07-08T06:17:00;301.63;;;286.02;;
11039;SDS011;5573;49.592;8.662;2023-07-08T06:19:28;188.65;;;178.77;;
11039;SDS011;5573;49.592;8.662;2023-07-08T06:21:56;160.32;;;151.82;;
11039;SDS011;5573;49.592;8.662;2023-07-08T06:24:44;89.32;;;84.35;;
11039;SDS011;5573;49.592;8.662;2023-07-08T06:27:15;343.20;;;256.98;;
11039;SDS011;5573;49.592;8.662;2023-07-08T06:29:42;137.38;;;129.85;;
11039;SDS011;5573;49.592;8.662;2023-07-08T06:32:10;136.05;;;128.63;;
11039;SDS011;5573;49.592;8.662;2023-07-08T06:34:38;187.05;;;175.82;;
11039;SDS011;5573;49.592;8.662;2023-07-08T06:37:06;151.82;;;142.63;;
11039;SDS011;5573;49.592;8.662;2023-07-08T06:39:34;173.45;;;162.95;;
11039;SDS011;5573;49.592;8.662;2023-07-08T06:42:05;181.05;;;169.57;;
11039;SDS011;5573;49.592;8.662;2023-07-08T06:44:40;178.57;;;168.35;;
11039;SDS011;5573;49.592;8.662;2023-07-08T06:47:12;163.13;;;154.32;;
11039;SDS011;5573;49.592;8.662;2023-07-08T06:49:39;175.85;;;166.18;;
11039;SDS011;5573;49.592;8.662;2023-07-08T06:52:07;160.52;;;151.65;;
11039;SDS011;5573;49.592;8.662;2023-07-08T06:54:35;152.23;;;143.65;;
11039;SDS011;5573;49.592;8.662;2023-07-08T06:57:04;150.88;;;142.20;;
11039;SDS011;5573;49.592;8.662;2023-07-08T06:59:32;137.77;;;129.82;;
11039;SDS011;5573;49.592;8.662;2023-07-08T07:02:03;132.10;;;124.47;;
11039;SDS011;5573;49.592;8.662;2023-07-08T07:04:30;133.77;;;126.20;;
11039;SDS011;5573;49.592;8.662;2023-07-08T07:06:59;174.45;;;164.68;;
11039;SDS011;5573;49.592;8.662;2023-07-08T07:09:26;177.55;;;167.88;;
11039;SDS011;5573;49.592;8.662;2023-07-08T07:11:54;179.93;;;170.52;;
11039;SDS011;5573;49.592;8.662;2023-07-08T07:14:22;200.05;;;189.63;;
11039;SDS011;5573;49.592;8.662;2023-07-08T07:16:53;171.52;;;162.30;;
11039;SDS011;5573;49.592;8.662;2023-07-08T07:19:35;148.15;;;140.10;;
11039;SDS011;5573;49.592;8.662;2023-07-08T07:22:03;143.23;;;135.25;;
11039;SDS011;5573;49.592;8.662;2023-07-08T07:24:32;137.98;;;130.50;;
11039;SDS011;5573;49.592;8.662;2023-07-08T07:27:00;147.73;;;139.77;;
11039;SDS011;5573;49.592;8.662;2023-07-08T07:29:28;150.73;;;142.73;;
11039;SDS011;5573;49.592;8.662;2023-07-08T07:31:55;147.20;;;139.40;;
11039;SDS011;5573;49.592;8.662;2023-07-08T07:34:23;137.38;;;130.02;;
11039;SDS011;5573;49.592;8.662;2023-07-08T07:36:52;154.75;;;146.65;;
11039;SDS011;5573;49.592;8.662;2023-07-08T07:39:23;159.23;;;150.48;;
11039;SDS011;5573;49.592;8.662;2023-07-08T07:41:51;166.48;;;157.35;;
11039;SDS011;5573;49.592;8.662;2023-07-08T07:44:19;146.38;;;138.43;;
11039;SDS011;5573;49.592;8.662;2023-07-08T07:46:47;132.90;;;125.85;;
11039;SDS011;5573;49.592;8.662;2023-07-08T07:49:15;116.20;;;109.95;;
11039;SDS011;5573;49.592;8.662;2023-07-08T07:51:43;125.43;;;118.53;;
11039;SDS011;5573;49.592;8.662;2023-07-08T07:54:12;118.90;;;112.40;;
11039;SDS011;5573;49.592;8.662;2023-07-08T07:56:40;113.13;;;107.03;;
11039;SDS011;5573;49.592;8.662;2023-07-08T07:59:08;118.35;;;111.93;;
11039;SDS011;5573;49.592;8.662;2023-07-08T08:01:35;119.55;;;113.07;;
11039;SDS011;5573;49.592;8.662;2023-07-08T08:04:03;143.00;;;135.40;;
11039;SDS011;5573;49.592;8.662;2023-07-08T08:06:31;140.05;;;132.60;;
11039;SDS011;5573;49.592;8.662;2023-07-08T08:08:59;161.90;;;153.10;;
11039;SDS011;5573;49.592;8.662;2023-07-08T08:11:29;168.48;;;159.52;;
11039;SDS011;5573;49.592;8.662;2023-07-08T08:13:57;160.88;;;152.23;;
11039;SDS011;5573;49.592;8.662;2023-07-08T08:16:25;162.10;;;153.50;;
11039;SDS011;5573;49.592;8.662;2023-07-08T08:18:53;169.30;;;160.13;;
11039;SDS011;5573;49.592;8.662;2023-07-08T08:21:20;163.82;;;154.85;;
11039;SDS011;5573;49.592;8.662;2023-07-08T08:23:49;156.50;;;147.93;;
11039;SDS011;5573;49.592;8.662;2023-07-08T08:26:16;149.48;;;141.48;;
11039;SDS011;5573;49.592;8.662;2023-07-08T08:28:46;152.02;;;143.85;;
11039;SDS011;5573;49.592;8.662;2023-07-08T08:31:13;141.00;;;133.57;;
11039;SDS011;5573;49.592;8.662;2023-07-08T08:33:41;134.30;;;127.10;;
11039;SDS011;5573;49.592;8.662;2023-07-08T08:36:09;142.45;;;134.95;;
11039;SDS011;5573;49.592;8.662;2023-07-08T08:38:37;143.20;;;135.50;;
11039;SDS011;5573;49.592;8.662;2023-07-08T08:41:08;148.50;;;140.57;;
11039;SDS011;5573;49.592;8.662;2023-07-08T08:43:39;141.48;;;133.88;;
11039;SDS011;5573;49.592;8.662;2023-07-08T08:46:11;140.27;;;132.77;;
11039;SDS011;5573;49.592;8.662;2023-07-08T08:48:48;136.90;;;129.38;;
11039;SDS011;5573;49.592;8.662;2023-07-08T08:51:20;127.75;;;120.88;;
11039;SDS011;5573;49.592;8.662;2023-07-08T08:53:50;130.18;;;123.05;;
11039;SDS011;5573;49.592;8.662;2023-07-08T08:56:24;126.25;;;119.32;;
11039;SDS011;5573;49.592;8.662;2023-07-08T08:58:57;132.02;;;124.85;;
11039;SDS011;5573;49.592;8.662;2023-07-08T09:01:30;121.00;;;114.43;;
11039;SDS011;5573;49.592;8.662;2023-07-08T09:04:00;128.90;;;121.65;;
11039;SDS011;5573;49.592;8.662;2023-07-08T09:06:31;125.03;;;118.22;;
11039;SDS011;5573;49.592;8.662;2023-07-08T09:09:02;127.97;;;120.75;;
11039;SDS011;5573;49.592;8.662;2023-07-08T09:11:40;118.95;;;112.47;;
11039;SDS011;5573;49.592;8.662;2023-07-08T09:14:13;125.53;;;118.68;;
11039;SDS011;5573;49.592;8.662;2023-07-08T09:16:47;127.72;;;120.80;;
11039;SDS011;5573;49.592;8.662;2023-07-08T09:19:22;142.30;;;134.65;;
11039;SDS011;5573;49.592;8.662;2023-07-08T09:21:53;133.73;;;126.65;;
11039;SDS011;5573;49.592;8.662;2023-07-08T09:24:29;142.20;;;134.60;;
11039;SDS011;5573;49.592;8.662;2023-07-08T09:27:09;150.45;;;142.27;;
11039;SDS011;5573;49.592;8.662;2023-07-08T09:29:37;143.05;;;135.32;;
11039;SDS011;5573;49.592;8.662;2023-07-08T09:32:13;134.98;;;127.82;;
11039;SDS011;5573;49.592;8.662;2023-07-08T09:34:45;137.95;;;130.68;;
11039;SDS011;5573;49.592;8.662;2023-07-08T09:37:24;156.65;;;148.38;;
11039;SDS011;5573;49.592;8.662;2023-07-08T09:39:54;138.38;;;131.10;;
11039;SDS011;5573;49.592;8.662;2023-07-08T09:42:23;147.98;;;140.00;;
11039;SDS011;5573;49.592;8.662;2023-07-08T09:44:55;144.13;;;136.43;;
11039;SDS011;5573;49.592;8.662;2023-07-08T09:47:26;147.05;;;139.27;;
11039;SDS011;5573;49.592;8.662;2023-07-08T09:49:57;147.20;;;139.38;;
11039;SDS011;5573;49.592;8.662;2023-07-08T09:52:29;164.15;;;155.40;;
11039;SDS011;5573;49.592;8.662;2023-07-08T09:54:57;146.10;;;138.23;;
11039;SDS011;5573;49.592;8.662;2023-07-08T09:57:27;158.18;;;149.75;;
11039;SDS011;5573;49.592;8.662;2023-07-08T09:59:59;155.30;;;146.95;;
11039;SDS011;5573;49.592;8.662;2023-07-08T10:02:32;165.40;;;156.70;;
11039;SDS011;5573;49.592;8.662;2023-07-08T10:05:12;162.73;;;154.07;;
11039;SDS011;5573;49.592;8.662;2023-07-08T10:07:43;166.85;;;157.75;;
11039;SDS011;5573;49.592;8.662;2023-07-08T10:10:13;181.98;;;172.38;;
11039;SDS011;5573;49.592;8.662;2023-07-08T10:12:46;179.20;;;169.70;;
11039;SDS011;5573;49.592;8.662;2023-07-08T10:15:22;170.95;;;161.82;;
11039;SDS011;5573;49.592;8.662;2023-07-08T10:18:01;176.48;;;167.10;;
11039;SDS011;5573;49.592;8.662;2023-07-08T10:20:32;180.93;;;171.40;;
11039;SDS011;5573;49.592;8.662;2023-07-08T10:23:08;180.13;;;170.50;;
11039;SDS011;5573;49.592;8.662;2023-07-08T10:25:46;178.10;;;168.63;;
11039;SDS011;5573;49.592;8.662;2023-07-08T10:28:26;188.48;;;178.45;;
11039;SDS011;5573;49.592;8.662;2023-07-08T10:31:05;183.70;;;173.95;;
11039;SDS011;5573;49.592;8.662;2023-07-08T10:33:49;198.57;;;188.20;;
11039;SDS011;5573;49.592;8.662;2023-07-08T10:36:29;176.70;;;167.18;;
11039;SDS011;5573;49.592;8.662;2023-07-08T10:39:14;200.93;;;190.25;;
11039;SDS011;5573;49.592;8.662;2023-07-08T10:42:01;201.35;;;190.57;;
11039;SDS011;5573;49.592;8.662;2023-07-08T10:44:36;202.35;;;191.55;;
11039;SDS011;5573;49.592;8.662;2023-07-08T10:47:12;196.02;;;185.57;;
11039;SDS011;5573;49.592;8.662;2023-07-08T10:49:55;203.77;;;192.93;;
11039;SDS011;5573;49.592;8.662;2023-07-08T10:52:35;202.80;;;191.75;;
11039;SDS011;5573;49.592;8.662;2023-07-08T10:55:26;207.73;;;196.63;;
11039;SDS011;5573;49.592;8.662;2023-07-08T10:58:03;189.27;;;179.00;;
11039;SDS011;5573;49.592;8.662;2023-07-08T11:00:46;203.38;;;192.30;;
11039;SDS011;5573;49.592;8.662;2023-07-08T11:03:30;201.35;;;190.60;;
11039;SDS011;5573;49.592;8.662;2023-07-08T11:06:20;199.80;;;189.02;;
11039;SDS011;5573;49.592;8.662;2023-07-08T11:08:53;210.88;;;199.35;;
11039;SDS011;5573;49.592;8.662;2023-07-08T11:11:29;202.85;;;191.98;;
11039;SDS011;5573;49.592;8.662;2023-07-08T11:14:03;199.35;;;188.55;;
11039;SDS011;5573;49.592;8.662;2023-07-08T11:16:45;200.85;;;190.02;;
11039;SDS011;5573;49.592;8.662;2023-07-08T11:19:21;208.98;;;197.93;;
11039;SDS011;5573;49.592;8.662;2023-07-08T11:21:56;207.00;;;195.85;;
11039;SDS011;5573;49.592;8.662;2023-07-08T11:24:28;207.15;;;195.95;;
11039;SDS011;5573;49.592;8.662;2023-07-08T11:27:04;218.60;;;206.75;;
11039;SDS011;5573;49.592;8.662;2023-07-08T11:29:35;215.63;;;204.02;;
11039;SDS011;5573;49.592;8.662;2023-07-08T11:32:05;214.73;;;203.32;;
11039;SDS011;5573;49.592;8.662;2023-07-08T11:34:39;209.25;;;198.13;;
11039;SDS011;5573;49.592;8.662;2023-07-08T11:37:11;222.05;;;210.43;;
11039;SDS011;5573;49.592;8.662;2023-07-08T11:39:41;214.15;;;202.75;;
11039;SDS011;5573;49.592;8.662;2023-07-08T11:42:12;204.05;;;193.30;;
11039;SDS011;5573;49.592;8.662;2023-07-08T11:44:46;213.40;;;202.13;;
11039;SDS011;5573;49.592;8.662;2023-07-08T11:47:19;216.30;;;204.75;;
11039;SDS011;5573;49.592;8.662;2023-07-08T11:49:51;211.95;;;200.85;;
11039;SDS011;5573;49.592;8.662;2023-07-08T11:52:22;206.45;;;195.73;;
11039;SDS011;5573;49.592;8.662;2023-07-08T11:54:55;191.55;;;181.45;;
11039;SDS011;5573;49.592;8.662;2023-07-08T11:57:27;180.23;;;170.68;;
11039;SDS011;5573;49.592;8.662;2023-07-08T12:00:14;190.75;;;180.63;;
11039;SDS011;5573;49.592;8.662;2023-07-08T12:02:49;190.45;;;180.35;;
11039;SDS011;5573;49.592;8.662;2023-07-08T12:05:28;166.85;;;157.88;;
11039;SDS011;5573;49.592;8.662;2023-07-08T12:08:00;171.48;;;162.18;;
11039;SDS011;5573;49.592;8.662;2023-07-08T12:10:33;172.90;;;163.85;;
11039;SDS011;5573;49.592;8.662;2023-07-08T12:13:05;180.63;;;170.88;;
11039;SDS011;5573;49.592;8.662;2023-07-08T12:15:38;174.80;;;165.40;;
11039;SDS011;5573;49.592;8.662;2023-07-08T12:18:09;163.48;;;154.73;;
11039;SDS011;5573;49.592;8.662;2023-07-08T12:20:41;159.60;;;150.98;;
11039;SDS011;5573;49.592;8.662;2023-07-08T12:23:12;160.70;;;151.77;;
11039;SDS011;5573;49.592;8.662;2023-07-08T12:25:42;163.88;;;155.07;;
11039;SDS011;5573;49.592;8.662;2023-07-08T12:28:11;154.68;;;146.25;;
11039;SDS011;5573;49.592;8.662;2023-07-08T12:30:40;158.63;;;150.15;;
11039;SDS011;5573;49.592;8.662;2023-07-08T12:33:11;177.35;;;167.82;;
11039;SDS011;5573;49.592;8.662;2023-07-08T12:35:41;167.05;;;157.95;;
11039;SDS011;5573;49.592;8.662;2023-07-08T12:38:15;168.30;;;159.15;;
11039;SDS011;5573;49.592;8.662;2023-07-08T12:40:47;157.25;;;148.73;;
11039;SDS011;5573;49.592;8.662;2023-07-08T12:43:16;157.68;;;148.98;;
11039;SDS011;5573;49.592;8.662;2023-07-08T12:45:44;180.07;;;170.38;;
11039;SDS011;5573;49.592;8.662;2023-07-08T12:48:12;176.15;;;166.57;;
11039;SDS011;5573;49.592;8.662;2023-07-08T12:50:40;169.02;;;159.82;;
11039;SDS011;5573;49.592;8.662;2023-07-08T12:53:10;172.00;;;162.50;;
11039;SDS011;5573;49.592;8.662;2023-07-08T12:55:41;188.52;;;178.15;;
11039;SDS011;5573;49.592;8.662;2023-07-08T12:58:12;173.90;;;164.38;;
11039;SDS011;5573;49.592;8.662;2023-07-08T13:00:43;174.48;;;164.88;;
11039;SDS011;5573;49.592;8.662;2023-07-08T13:03:13;170.10;;;160.82;;
11039;SDS011;5573;49.592;8.662;2023-07-08T13:05:44;166.75;;;157.65;;
11039;SDS011;5573;49.592;8.662;2023-07-08T13:08:13;172.98;;;163.52;;
11039;SDS011;5573;49.592;8.662;2023-07-08T13:10:44;164.90;;;155.90;;
11039;SDS011;5573;49.592;8.662;2023-07-08T13:13:15;164.82;;;155.93;;
11039;SDS011;5573;49.592;8.662;2023-07-08T13:15:48;154.38;;;146.15;;
11039;SDS011;5573;49.592;8.662;2023-07-08T13:18:17;161.63;;;152.93;;
11039;SDS011;5573;49.592;8.662;2023-07-08T13:20:47;156.50;;;148.15;;
11039;SDS011;5573;49.592;8.662;2023-07-08T13:23:18;148.75;;;140.85;;
11039;SDS011;5573;49.592;8.662;2023-07-08T13:25:50;161.70;;;153.02;;
11039;SDS011;5573;49.592;8.662;2023-07-08T13:28:20;144.20;;;136.57;;
11039;SDS011;5573;49.592;8.662;2023-07-08T13:30:52;138.98;;;131.57;;
11039;SDS011;5573;49.592;8.662;2023-07-08T13:33:22;143.52;;;135.80;;
11039;SDS011;5573;49.592;8.662;2023-07-08T13:35:51;55.08;;;52.15;;
11039;SDS011;5573;49.592;8.662;2023-07-08T13:38:22;216.15;;;204.70;;
11039;SDS011;5573;49.592;8.662;2023-07-08T13:40:54;186.20;;;176.40;;
11039;SDS011;5573;49.592;8.662;2023-07-08T13:43:24;181.70;;;172.02;;
11039;SDS011;5573;49.592;8.662;2023-07-08T13:45:54;182.52;;;172.73;;
11039;SDS011;5573;49.592;8.662;2023-07-08T13:48:24;173.23;;;163.90;;
11039;SDS011;5573;49.592;8.662;2023-07-08T13:50:55;210.10;;;199.10;;
11039;SDS011;5573;49.592;8.662;2023-07-08T13:53:26;187.98;;;177.85;;
11039;SDS011;5573;49.592;8.662;2023-07-08T13:56:02;190.15;;;179.82;;
11039;SDS011;5573;49.592;8.662;2023-07-08T13:58:41;177.02;;;167.63;;
11039;SDS011;5573;49.592;8.662;2023-07-08T14:01:11;190.45;;;180.38;;
11039;SDS011;5573;49.592;8.662;2023-07-08T14:03:46;193.43;;;183.18;;
11039;SDS011;5573;49.592;8.662;2023-07-08T14:06:15;185.02;;;175.23;;
11039;SDS011;5573;49.592;8.662;2023-07-08T14:08:43;182.68;;;172.90;;
11039;SDS011;5573;49.592;8.662;2023-07-08T14:11:12;189.07;;;178.98;;
11039;SDS011;5573;49.592;8.662;2023-07-08T14:13:41;195.80;;;185.40;;
11039;SDS011;5573;49.592;8.662;2023-07-08T14:16:10;183.15;;;173.40;;
11039;SDS011;5573;49.592;8.662;2023-07-08T14:18:50;188.95;;;178.90;;
11039;SDS011;5573;49.592;8.662;2023-07-08T14:21:18;188.95;;;178.80;;
11039;SDS011;5573;49.592;8.662;2023-07-08T14:23:46;195.15;;;184.80;;
11039;SDS011;5573;49.592;8.662;2023-07-08T14:26:15;191.73;;;181.45;;
11039;SDS011;5573;49.592;8.662;2023-07-08T14:28:43;180.68;;;171.05;;
11039;SDS011;5573;49.592;8.662;2023-07-08T14:31:11;183.75;;;173.82;;